Home > Products > Valid Products > TAF

000
FTUS43 KABR 290200 AAA
TAFABR
TAF AMD
KABR 290257Z 2903/2924 08007KT P6SM -RA OVC080
     FM290700 VRB03KT 3SM BR OVC003
     FM291500 35008KT P6SM SCT250=



000
FTUS43 KABR 290100 AAA
TAFATY
TAF AMD
KATY 290126Z 2901/2924 10007KT P6SM OVC005
     FM290400 VRB03KT 2SM BR OVC003
     FM290800 VRB03KT 1SM BR OVC002
     FM291500 VRB04KT P6SM OVC015
     FM291900 VRB05KT P6SM SCT150=



000
FTUS43 KABR 290100 AAA
TAFABR
TAF AMD
KABR 290125Z 2901/2924 VRB04KT 4SM RA BR OVC080
     FM290700 VRB03KT 3SM BR OVC003
     FM291500 35008KT P6SM SCT250=



000
FTUS43 KABR 282300
TAFABR
TAF
KABR 282331Z 2900/2924 VRB04KT 2SM RA BR SCT008 BKN015 OVC025
     FM290700 VRB03KT 3SM BR OVC003
     FM291500 35008KT P6SM SCT250=



000
FTUS43 KABR 282300
TAFPIR
TAF
KPIR 282331Z 2900/2924 34010KT P6SM FEW015 BKN070
     FM290700 VRB04KT 2SM BR SCT250
     FM291300 VRB05KT P6SM SKC=



000
FTUS43 KABR 282300
TAFMBG
TAF
KMBG 282331Z 2900/2924 VRB04KT P6SM -DZ FEW010 OVC050
     FM290700 VRB05KT 4SM BR SCT250
     FM291300 VRB05KT P6SM SKC=



000
FTUS43 KABR 282300
TAFATY
TAF
KATY 282331Z 2900/2924 VRB04KT P6SM -DZ OVC006
     FM290400 VRB03KT 2SM BR OVC003
     FM290800 VRB03KT 1SM BR OVC002
     FM291500 VRB04KT P6SM OVC015
     FM291900 VRB05KT P6SM SCT150=



000
FTUS43 KABR 282200 AAC
TAFABR
TAF AMD
KABR 282256Z 2823/2918 VRB04KT 1SM RA BR BKN025 OVC035
     FM290700 VRB03KT 4SM BR OVC007
     FM291500 VRB04KT P6SM SCT250=



000
FTUS43 KABR 282200 AAB
TAFATY
TAF AMD
KATY 282202Z 2822/2918 10006KT P6SM -DZ OVC009
     FM290400 VRB03KT 2SM BR OVC003
     FM291500 VRB04KT P6SM OVC015=



000
FTUS43 KABR 282200 AAB
TAFABR
TAF AMD
KABR 282202Z 2822/2918 08008KT P6SM -DZ BKN025 OVC035
     FM290700 VRB03KT 4SM BR OVC007
     FM291500 VRB04KT P6SM SCT250=



000
FTUS43 KABR 282200 AAC
TAFMBG
TAF AMD
KMBG 282202Z 2822/2918 VRB04KT P6SM -RA SCT011 OVC035
     FM290700 VRB05KT 4SM BR SCT250
     FM291300 VRB05KT P6SM SKC=



000
FTUS43 KABR 282100 AAB
TAFMBG
TAF AMD
KMBG 282153Z 2822/2918 VRB04KT P6SM -RA BKN011 OVC035
     FM290700 VRB05KT 4SM BR SCT250
     FM291300 VRB05KT P6SM SKC=



000
FTUS43 KABR 282100 AAA
TAFATY
TAF AMD
KATY 282153Z 2822/2918 10006KT P6SM -DZ OVC012
     FM290400 VRB03KT 2SM BR OVC003
     FM291500 VRB04KT P6SM OVC015=



000
FTUS43 KABR 282100 AAA
TAFABR
TAF AMD
KABR 282152Z 2822/2918 08008KT P6SM -DZ SCT011 OVC035
     FM290700 VRB03KT 4SM BR OVC007
     FM291500 VRB04KT P6SM SCT250=



000
FTUS43 KABR 282000 AAB
TAFPIR
TAF AMD
KPIR 282032Z 2821/2918 35009KT P6SM SCT012 OVC035
     FM290000 VRB05KT P6SM BKN050
     FM290700 VRB04KT 2SM BR SCT250
     FM291300 VRB05KT P6SM SKC=



000
FTUS43 KABR 281800 AAA
TAFPIR
TAF AMD
KPIR 281842Z 2819/2918 VRB05KT P6SM -RA BKN010 OVC020
     FM282100 VRB05KT P6SM OVC050
     FM290700 VRB06KT 2SM BR SCT250
     FM291300 VRB05KT P6SM SKC=



000
FTUS43 KABR 281800 AAA
TAFMBG
TAF AMD
KMBG 281842Z 2819/2918 VRB04KT P6SM -RA SCT006 OVC035
     FM282100 11007KT P6SM OVC050
     FM290700 VRB05KT 4SM BR SCT250
     FM291300 VRB05KT P6SM SKC=



000
FTUS43 KABR 281700
TAFMBG
TAF
KMBG 281722Z 2818/2918 VRB04KT P6SM -RA BKN005 OVC010
     FM282100 11007KT P6SM OVC050
     FM290700 VRB05KT 4SM BR SCT250
     FM291300 VRB05KT P6SM SKC=



000
FTUS43 KABR 281700
TAFATY
TAF
KATY 281722Z 2818/2918 13006KT 6SM -RA BR OVC006
     FM282000 VRB04KT P6SM -DZ OVC007
     FM290400 VRB03KT 2SM BR OVC003
     FM291500 VRB04KT P6SM OVC015=



000
FTUS43 KABR 281700
TAFPIR
TAF
KPIR 281722Z 2818/2918 VRB05KT P6SM -DZ BKN008 OVC020
     FM282100 VRB05KT P6SM OVC050
     FM290700 VRB06KT 2SM BR SCT250
     FM291300 VRB05KT P6SM SKC=



000
FTUS43 KABR 281700
TAFABR
TAF
KABR 281722Z 2818/2918 12006KT P6SM -SHRA OVC011
     FM282000 VRB04KT P6SM -DZ OVC015
     FM290700 VRB03KT 4SM BR OVC007
     FM291500 VRB04KT P6SM SCT250=



000
FTUS43 KABR 281600 AAD
TAFMBG
TAF AMD
KMBG 281655Z 2817/2912 15006KT P6SM -RA BKN005 OVC035
     FM282100 14006KT P6SM OVC035
     FM290600 VRB06KT 2SM BR SKC=



000
FTUS43 KABR 281600 AAC
TAFATY
TAF AMD
KATY 281609Z 2816/2912 13006KT P6SM -RA OVC007
     FM281700 12007KT 4SM -SHRA BR OVC007
     FM290000 VRB06KT P6SM OVC015
     FM290600 VRB06KT 2SM BR OVC006=



000
FTUS43 KABR 281600 AAC
TAFMBG
TAF AMD
KMBG 281608Z 2816/2912 15006KT P6SM -RA SCT005 OVC090
     FM282100 14006KT P6SM OVC035
     FM290600 VRB06KT 2SM BR SKC=



000
FTUS43 KABR 281500 AAB
TAFMBG
TAF AMD
KMBG 281502Z 2815/2912 14007KT 6SM -RA BR OVC004
     FM282100 14006KT P6SM OVC035
     FM290600 VRB06KT 2SM BR SKC=



000
FTUS43 KABR 281500 AAB
TAFPIR
TAF AMD
KPIR 281502Z 2815/2912 VRB04KT 4SM -RA BR OVC005
     FM281600 VRB06KT P6SM BKN010 OVC080
     FM282100 VRB06KT P6SM FEW020 SCT120
     FM290600 VRB06KT 2SM BR SKC=



000
FTUS43 KABR 281500 AAB
TAFATY
TAF AMD
KATY 281501Z 2815/2912 13006KT P6SM OVC007
     FM281600 12007KT 4SM -SHRA BR OVC007
     FM290000 VRB06KT P6SM OVC015
     FM290600 VRB06KT 2SM BR OVC006=



000
FTUS43 KABR 281500 AAA
TAFABR
TAF AMD
KABR 281500Z 2815/2912 12006KT P6SM -DZ SCT007 OVC015
     FM281900 VRB06KT 4SM -SHRA BR BKN011 BKN060 OVC090
     FM290000 VRB06KT 3SM BR BKN008 OVC250=



000
FTUS43 KABR 281300 AAA
TAFMBG
TAF AMD
KMBG 281319Z 2813/2912 VRB04KT 6SM SHRA BR OVC004
     FM282100 14006KT P6SM OVC035
     FM290600 VRB06KT 2SM BR SKC=



000
FTUS43 KABR 281300 AAA
TAFPIR
TAF AMD
KPIR 281318Z 2813/2912 08008KT 6SM -SHRA BR OVC004
     FM281600 VRB06KT P6SM BKN010 OVC080
     FM282100 VRB06KT P6SM FEW020 SCT120
     FM290600 VRB06KT 2SM BR SKC=



000
FTUS43 KABR 281300 AAA
TAFATY
TAF AMD
KATY 281317Z 2813/2912 14007KT P6SM OVC009
     FM281500 12007KT 4SM -SHRA OVC009
     FM290000 VRB06KT P6SM OVC015
     FM290600 VRB06KT 2SM BR OVC006=



000
FTUS43 KABR 281300 AAA
TAFABR
TAF AMD
KABR 281316Z 2813/2912 VRB05KT P6SM -DZ SCT013 OVC035
     FM281900 VRB06KT 4SM -SHRA BR BKN011 BKN060 OVC090
     FM290000 VRB06KT 3SM BR BKN008 OVC250=



000
FTUS43 KABR 281100
TAFPIR
TAF
KPIR 281139Z 2812/2912 VRB06KT 5SM -SHRA BR VCTS SCT003 BKN017
      OVC070CB
      TEMPO 2812/2814 -TSRA BKN003 BKN010 OVC060CB
     FM281400 VRB06KT P6SM BKN010 OVC080
     FM282100 VRB06KT P6SM FEW020 SCT120
     FM290600 VRB06KT 2SM BR SKC=



000
FTUS43 KABR 281100
TAFATY
TAF
KATY 281139Z 2812/2912 13006KT P6SM FEW010 BKN070 OVC120
      TEMPO 2812/2815 5SM -DZ BKN010 OVC070
     FM281500 12007KT 4SM -SHRA BKN011 BKN060 OVC100
     FM290000 VRB06KT P6SM OVC015
     FM290600 VRB06KT 2SM BR OVC006=



000
FTUS43 KABR 281100
TAFMBG
TAF
KMBG 281139Z 2812/2912 VRB06KT 4SM SHRA BR BKN004 BKN010 OVC090
      TEMPO 2812/2816 6SM -DZ SCT004 BKN015 OVC120
     FM282100 14006KT P6SM SCT015 BKN035 OVC150
     FM290600 VRB06KT 2SM BR SKC=



000
FTUS43 KABR 281100
TAFABR
TAF
KABR 281139Z 2812/2912 VRB06KT P6SM OVC011
      TEMPO 2812/2815 5SM -DZ BKN009 OVC020
     FM281900 VRB06KT 4SM -SHRA BR BKN011 BKN060 OVC090
     FM290000 VRB06KT 3SM BR BKN008 OVC250=



000
FTUS43 KABR 281100 AAD
TAFATY
TAF AMD
KATY 281111Z 2811/2906 13005KT P6SM VCSH FEW008 FEW070 OVC120
     FM281200 12007KT 6SM -SHRA OVC025
     FM290000 VRB05KT P6SM OVC015=



000
FTUS43 KABR 281100 AAC
TAFMBG
TAF AMD
KMBG 281106Z 2811/2906 VRB06KT 5SM -SHRA BR BKN006 BKN013 OVC110
     FM281800 06006KT P6SM SCT015 BKN035 OVC150
     FM290200 11006KT P6SM SCT120 SCT250=



000
FTUS43 KABR 281100 AAC
TAFPIR
TAF AMD
KPIR 281105Z 2811/2906 07003KT 6SM -SHRA BR VCTS FEW003 BKN070CB
      OVC090
      TEMPO 2811/2813 3SM -TSRA BKN002 BKN010 OVC060CB
     FM281300 VRB03KT 1SM BR OVC007
     FM281500 36006KT P6SM BKN010 OVC080
     FM290000 36007KT P6SM SCT100 BKN250=



000
FTUS43 KABR 281000 AAB
TAFABR
TAF AMD
KABR 281019Z 2810/2906 VRB05KT 6SM -SHRA BR OVC012
     FM281900 VRB05KT P6SM OVC035=



000
FTUS43 KABR 280900 AAB
TAFMBG
TAF AMD
KMBG 280905Z 2809/2906 12006KT P6SM VCSH OVC009
     FM281100 VRB06KT 6SM -SHRA BR SCT009 BKN013 OVC110
     FM281800 06006KT P6SM SCT015 BKN035 OVC150
     FM290200 11006KT P6SM SCT120 SCT250=



000
FTUS43 KABR 280900 AAA
TAFABR
TAF AMD
KABR 280903Z 2809/2906 10006KT P6SM VCSH OVC013
     FM281100 VRB05KT 6SM -SHRA OVC020
     FM281900 VRB05KT P6SM OVC035=



000
FTUS43 KABR 280800 AAB
TAFPIR
TAF AMD
KPIR 280855Z 2809/2906 12008KT 6SM -SHRA BR SCT002 BKN050 OVC100
      TEMPO 2809/2811 3SM -SHRA BKN002 BKN010 OVC060
     FM281100 VRB03KT 1SM BR OVC007
     FM281500 36006KT P6SM BKN010 OVC080
     FM290000 36007KT P6SM SCT100 BKN250=



000
FTUS43 KABR 280800 AAC
TAFATY
TAF AMD
KATY 280854Z 2809/2906 15008KT P6SM VCSH OVC015
     FM281200 12007KT 6SM -SHRA OVC025
     FM290000 VRB05KT P6SM OVC015=



000
FTUS43 KABR 280800 AAA
TAFMBG
TAF AMD
KMBG 280834Z 2809/2906 14006KT P6SM VCSH SCT009 BKN013 OVC040
     FM281800 06006KT P6SM SCT015 BKN035 OVC150
     FM290200 11006KT P6SM SCT120 SCT250=



000
FTUS43 KABR 280800 AAA
TAFPIR
TAF AMD
KPIR 280833Z 2809/2906 12008KT 6SM -SHRA BR SCT003 BKN060 OVC100
      TEMPO 2809/2811 3SM -SHRA BKN025 OVC080
     FM281100 VRB03KT 1SM BR OVC007
     FM281500 36006KT P6SM BKN010 OVC080
     FM290000 36007KT P6SM SCT100 BKN250=



000
FTUS43 KABR 280800 AAB
TAFATY
TAF AMD
KATY 280832Z 2809/2906 15008KT P6SM OVC015
     FM281200 12007KT 6SM -SHRA OVC025
     FM290000 VRB05KT P6SM OVC015=



000
FTUS43 KABR 280600 AAA
TAFATY
TAF AMD
KATY 280656Z 2807/2906 15007KT P6SM BKN020 BKN120 BKN250
     FM281200 12007KT 6SM -SHRA OVC025
     FM290000 VRB05KT P6SM OVC015=



000
FTUS43 KABR 280600 AAA
TAFABR
TAF AMD
KABR 280655Z 2807/2906 11005KT P6SM BKN022 BKN070
     FM281100 VRB05KT 6SM -SHRA OVC020
     FM281900 VRB05KT P6SM OVC035=



000
FTUS43 KABR 280500
TAFPIR
TAF
KPIR 280535Z 2806/2906 14008KT 6SM -SHRA BR SCT011 BKN025 OVC100
     FM281000 VRB03KT 1SM BR OVC007
     FM281500 36006KT P6SM BKN010 OVC080
     FM290000 36007KT P6SM SCT100 BKN250=



000
FTUS43 KABR 280500
TAFATY
TAF
KATY 280535Z 2806/2906 13007KT P6SM BKN120 BKN250
     FM281200 12007KT 6SM -SHRA OVC025
     FM290000 VRB05KT P6SM OVC015=



000
FTUS43 KABR 280500
TAFMBG
TAF
KMBG 280535Z 2806/2906 10006KT P6SM SCT025 BKN040 OVC250
     FM280900 09006KT P6SM SCT009 BKN013 OVC025
     FM281800 06006KT P6SM SCT015 BKN035 OVC150
     FM290200 11006KT P6SM SCT120 SCT250=



000
FTUS43 KABR 280500
TAFABR
TAF
KABR 280535Z 2806/2906 12009KT P6SM BKN035 BKN250
     FM281100 VRB05KT 6SM -SHRA OVC020
     FM281900 VRB05KT P6SM OVC035=



000
FTUS43 KABR 280300 AAA
TAFPIR
TAF AMD
KPIR 280307Z 2803/2824 12008KT P6SM -SHRA OVC080
     FM280900 VRB03KT 1SM BR OVC007=



000
FTUS43 KABR 280300 AAC
TAFMBG
TAF AMD
KMBG 280307Z 2803/2824 09008KT P6SM BKN025 OVC045
      TEMPO 2803/2805 SCT025
     FM280500 VRB05KT P6SM OVC015=



000
FTUS43 KABR 280200 AAB
TAFMBG
TAF AMD
KMBG 280239Z 2803/2824 09008KT P6SM BKN025 OVC045
     FM280500 VRB05KT P6SM OVC015=



000
FTUS43 KABR 280200 AAA
TAFMBG
TAF AMD
KMBG 280201Z 2802/2824 09008KT P6SM SCT025 OVC045
     FM280500 VRB05KT P6SM OVC015=



000
FTUS43 KABR 272300
TAFATY
TAF
KATY 272331Z 2800/2824 13007KT P6SM OVC080
     FM281500 12007KT 4SM -RA BR OVC015=



000
FTUS43 KABR 272300
TAFMBG
TAF
KMBG 272331Z 2800/2824 VRB05KT P6SM OVC025
     FM280500 VRB05KT P6SM OVC015=



000
FTUS43 KABR 272300
TAFPIR
TAF
KPIR 272331Z 2800/2824 12008KT P6SM OVC035
     FM280300 VRB05KT P6SM VCSH OVC015
     FM280900 VRB03KT 1SM BR OVC007=



000
FTUS43 KABR 272300
TAFABR
TAF
KABR 272331Z 2800/2824 12009KT P6SM OVC070
     FM281000 VRB05KT 4SM -RA BR OVC015=



000
FTUS43 KABR 272200 AAB
TAFMBG
TAF AMD
KMBG 272248Z 2723/2818 10007KT P6SM SCT025 SCT050 BKN090
     FM280000 14009KT P6SM OVC050
     FM280500 VRB05KT P6SM OVC015=



000
FTUS43 KABR 272000 AAB
TAFPIR
TAF AMD
KPIR 272058Z 2721/2818 13011KT P6SM OVC035
     FM280300 VRB05KT P6SM VCSH OVC015
     FM280900 VRB03KT 1SM BR OVC007=



000
FTUS43 KABR 271900 AAA
TAFMBG
TAF AMD
KMBG 271929Z 2719/2818 14012KT P6SM BKN025 OVC040
     FM280000 14009KT P6SM OVC050
     FM280500 VRB05KT P6SM OVC015=



000
FTUS43 KABR 271900 AAA
TAFPIR
TAF AMD
KPIR 271928Z 2719/2818 13009KT P6SM BKN015
      TEMPO 2719/2721 SCT015
     FM280300 VRB05KT P6SM VCSH OVC015
     FM280900 VRB03KT 1SM BR OVC007=



000
FTUS43 KABR 271700
TAFATY
TAF
KATY 271726Z 2718/2818 15009KT P6SM OVC060
     FM280900 12007KT 4SM -RA BR OVC015
     FM281200 11008KT 2SM -RA BR OVC005=



000
FTUS43 KABR 271700
TAFABR
TAF
KABR 271726Z 2718/2818 15009KT P6SM SCT025 BKN050
     FM272100 12006KT P6SM OVC050
     FM281000 VRB05KT 4SM -RA BR OVC015=



000
FTUS43 KABR 271700
TAFMBG
TAF
KMBG 271726Z 2718/2818 VRB04KT P6SM SCT050
     FM280000 14009KT P6SM OVC050
     FM280500 VRB05KT P6SM OVC015=



000
FTUS43 KABR 271700
TAFPIR
TAF
KPIR 271726Z 2718/2818 11012KT P6SM OVC009
     FM280300 VRB05KT P6SM VCSH OVC015
     FM280900 VRB03KT 1SM BR OVC007=



000
FTUS43 KABR 271400 AAA
TAFABR
TAF AMD
KABR 271459Z 2715/2812 15006KT P6SM SKC
     FM271600 12007KT P6SM SCT050
     FM272100 14006KT P6SM SCT035 BKN120=



000
FTUS43 KABR 271400 AAB
TAFPIR
TAF AMD
KPIR 271459Z 2715/2812 09006KT 4SM BR OVC002
     FM272200 11009KT P6SM VCSH SCT020 BKN035 OVC100
     FM280600 10006KT P6SM OVC015=



000
FTUS43 KABR 271300 AAB
TAFABR
TAF AMD
KABR 271323Z 2713/2812 VRB04KT P6SM SKC
     FM271500 12006KT P6SM BKN050
     FM272100 14006KT P6SM SCT035 BKN120=



000
FTUS43 KABR 271300 AAB
TAFMBG
TAF AMD
KMBG 271323Z 2713/2812 VRB03KT P6SM SKC
     FM271600 12008KT P6SM BKN050
     FM280300 14006KT P6SM FEW035 BKN150 OVC250=



000
FTUS43 KABR 271200 AAA
TAFMBG
TAF AMD
KMBG 271250Z 2713/2812 07006KT P6SM FEW015
      TEMPO 2713/2715 BKN015
     FM271500 12008KT P6SM BKN015 OVC150
     FM280300 14006KT P6SM FEW035 BKN150 OVC250=



000
FTUS43 KABR 271200 AAA
TAFABR
TAF AMD
KABR 271248Z 2713/2812 VRB06KT P6SM FEW020 SCT060
      TEMPO 2713/2715 BKN020 BKN250
     FM271500 12006KT P6SM BKN025 BKN120
     FM272100 14006KT P6SM SCT035 BKN120=



000
FTUS43 KABR 271200 AAA
TAFPIR
TAF AMD
KPIR 271243Z 2713/2812 06008KT 2SM BR OVC004
      TEMPO 2713/2716 1SM BR
     FM271600 10008KT P6SM BKN011 BKN100 OVC150
     FM272200 11009KT P6SM VCSH SCT020 BKN035 OVC100
     FM280600 10006KT P6SM OVC015=



000
FTUS43 KABR 271100
TAFMBG
TAF
KMBG 271137Z 2712/2812 07006KT P6SM SKC
      TEMPO 2712/2715 2SM BR BKN006
     FM271500 12008KT P6SM BKN020 OVC150
     FM280300 14006KT P6SM FEW035 BKN150 OVC250=



000
FTUS43 KABR 271100
TAFPIR
TAF
KPIR 271137Z 2712/2812 07006KT P6SM OVC009
     FM271600 10008KT P6SM BKN011 BKN100 OVC150
     FM272200 11009KT P6SM VCSH SCT020 BKN035 OVC100
     FM280600 10006KT P6SM OVC015=



000
FTUS43 KABR 271100
TAFATY
TAF
KATY 271137Z 2712/2812 12006KT P6SM BKN070
     FM271700 13006KT P6SM FEW035 BKN100 OVC150
     FM280900 15006KT P6SM -SHRA VCTS BKN025 OVC070CB=



000
FTUS43 KABR 271100
TAFABR
TAF
KABR 271137Z 2712/2812 VRB06KT P6SM FEW020 SCT060
      TEMPO 2712/2715 BKN020 BKN250
     FM271500 12006KT P6SM BKN025 BKN120
     FM272100 14006KT P6SM SCT035 BKN120=



000
FTUS43 KABR 271000 AAC
TAFPIR
TAF AMD
KPIR 271045Z 2711/2806 08005KT P6SM OVC009
     FM271500 11008KT P6SM SCT021 BKN030 BKN120=



000
FTUS43 KABR 271000 AAB
TAFPIR
TAF AMD
KPIR 271011Z 2710/2806 08008KT P6SM OVC011
     FM271500 11008KT P6SM SCT021 BKN030 BKN120=



000
FTUS43 KABR 270900 AAA
TAFPIR
TAF AMD
KPIR 270928Z 2709/2806 08008KT P6SM FEW014 OVC021
     FM271500 11008KT P6SM SCT021 BKN030 BKN120=



000
FTUS43 KABR 270500
TAFABR
TAF
KABR 270532Z 2706/2806 VRB04KT P6SM OVC090=



000
FTUS43 KABR 270500
TAFMBG
TAF
KMBG 270532Z 2706/2806 09006KT P6SM OVC050
     FM271700 13009KT P6SM SCT030 SCT120=



000
FTUS43 KABR 270500
TAFPIR
TAF
KPIR 270532Z 2706/2806 07009KT P6SM SCT060 BKN120
     FM271500 11008KT P6SM BKN035 BKN120=



000
FTUS43 KABR 270500
TAFATY
TAF
KATY 270532Z 2706/2806 VRB04KT P6SM OVC080
     FM271700 14008KT P6SM BKN200
     FM272300 VRB03KT P6SM OVC070=



000
FTUS43 KABR 262300
TAFATY
TAF
KATY 262330Z 2700/2724 VRB03KT P6SM BKN120
     FM271700 14008KT P6SM BKN200
     FM272300 VRB03KT P6SM OVC070=



000
FTUS43 KABR 262300
TAFPIR
TAF
KPIR 262330Z 2700/2724 11011KT P6SM BKN100
     FM270400 VRB05KT P6SM OVC060
     FM271700 11010KT P6SM OVC045=



000
FTUS43 KABR 262300
TAFABR
TAF
KABR 262330Z 2700/2724 VRB05KT P6SM BKN070=



000
FTUS43 KABR 262300
TAFMBG
TAF
KMBG 262330Z 2700/2724 06009KT P6SM BKN090
     FM270500 VRB05KT P6SM OVC060
     FM271700 13009KT P6SM OVC045=



000
FTUS43 KABR 261700
TAFATY
TAF
KATY 261729Z 2618/2718 09005KT P6SM BKN100=



000
FTUS43 KABR 261700
TAFMBG
TAF
KMBG 261729Z 2618/2718 12008KT P6SM BKN100=



000
FTUS43 KABR 261700
TAFABR
TAF
KABR 261729Z 2618/2718 11006KT P6SM BKN100=



000
FTUS43 KABR 261700
TAFPIR
TAF
KPIR 261729Z 2618/2718 11008KT P6SM BKN100=



000
FTUS43 KABR 261100
TAFABR
TAF
KABR 261136Z 2612/2712 VRB06KT P6SM SCT250
     FM262100 13006KT P6SM FEW120 OVC250=



000
FTUS43 KABR 261100
TAFMBG
TAF
KMBG 261136Z 2612/2712 VRB06KT P6SM FEW120 BKN250
     FM261500 13008KT P6SM VCSH BKN100 OVC150
     FM262100 VRB06KT P6SM BKN100=



000
FTUS43 KABR 261100
TAFPIR
TAF
KPIR 261136Z 2612/2712 10006KT P6SM VCSH SCT120 BKN250
      TEMPO 2612/2615 -SHRA BKN100 OVC150
     FM261500 11006KT P6SM -SHRA VCTS BKN090 OVC120CB
     FM262100 12010KT P6SM SCT100 BKN150
     FM270200 10007KT P6SM BKN100=



000
FTUS43 KABR 261100
TAFATY
TAF
KATY 261136Z 2612/2712 00000KT P6SM SCT250=



000
FTUS43 KABR 260500
TAFPIR
TAF
KPIR 260520Z 2606/2706 VRB05KT P6SM BKN150
     FM261700 12009KT P6SM SKC
     FM270200 10007KT P6SM BKN100=



000
FTUS43 KABR 260500
TAFATY
TAF
KATY 260520Z 2606/2706 VRB05KT P6SM SKC=



000
FTUS43 KABR 260500
TAFMBG
TAF
KMBG 260520Z 2606/2706 VRB05KT P6SM BKN150
     FM261800 14008KT P6SM BKN100
     FM270300 VRB05KT P6SM BKN100=



000
FTUS43 KABR 260500
TAFABR
TAF
KABR 260520Z 2606/2706 VRB05KT P6SM SKC=



    US Dept of Commerce
    National Oceanic and Atmospheric Administration
    National Weather Service
    1325 East West Highway
    Silver Spring, MD 20910
    Page Author: NWS Internet Services Team
Disclaimer
Information Quality
Credits
Glossary
Privacy Policy
Freedom of Information Act (FOIA)
About Us
Career Opportunities